Time,TemperatureF,DewpointF,PressureIn,WindDirection,WindDirectionDegrees,WindSpeedMPH,WindSpeedGustMPH,Humidity,HourlyPrecipIn,Conditions,Clouds,dailyrainin,SoftwareType,DateUTC
2013-06-25 00:09:00,81.9,76.0,29.92,ENE,72,5.0,13.0,82,0.00,,,0.00,weatherlink.com 1.10,2013-06-25 04:09:00,
2013-06-25 00:24:00,81.9,76.0,29.92,ENE,62,10.0,15.0,83,0.00,,,0.00,weatherlink.com 1.10,2013-06-25 04:24:00,
2013-06-25 00:39:00,82.0,76.0,29.92,ENE,59,15.0,16.0,82,0.00,,,0.00,weatherlink.com 1.10,2013-06-25 04:39:00,
2013-06-25 00:54:00,81.9,76.0,29.91,ENE,74,4.0,13.0,82,0.00,,,0.00,weatherlink.com 1.10,2013-06-25 04:54:00,
2013-06-25 01:09:00,81.8,76.0,29.91,ESE,103,3.0,12.0,83,0.00,,,0.00,weatherlink.com 1.10,2013-06-25 05:09:00,
2013-06-25 01:24:00,81.6,76.0,29.90,ESE,105,4.0,14.0,82,0.00,,,0.00,weatherlink.com 1.10,2013-06-25 05:24:00,
2013-06-25 01:39:00,81.7,76.0,29.90,East,82,13.0,16.0,82,0.00,,,0.00,weatherlink.com 1.10,2013-06-25 05:39:00,
2013-06-25 01:54:00,81.6,76.0,29.90,East,88,6.0,14.0,82,0.00,,,0.00,weatherlink.com 1.10,2013-06-25 05:54:00,
2013-06-25 02:09:00,81.5,75.0,29.90,ENE,75,7.0,14.0,81,0.00,,,0.00,weatherlink.com 1.10,2013-06-25 06:09:00,
2013-06-25 02:24:00,81.5,75.0,29.90,East,97,5.0,14.0,81,0.00,,,0.00,weatherlink.com 1.10,2013-06-25 06:24:00,
2013-06-25 02:39:00,81.5,76.0,29.90,East,100,3.0,14.0,82,0.00,,,0.00,weatherlink.com 1.10,2013-06-25 06:39:00,
2013-06-25 02:54:00,81.4,75.0,29.90,ENE,65,5.0,14.0,82,0.00,,,0.00,weatherlink.com 1.10,2013-06-25 06:54:00,
2013-06-25 03:09:00,81.4,75.0,29.90,East,96,5.0,15.0,81,0.00,,,0.00,weatherlink.com 1.10,2013-06-25 07:09:00,
2013-06-25 03:24:00,81.3,75.0,29.90,East,86,14.0,14.0,82,0.00,,,0.00,weatherlink.com 1.10,2013-06-25 07:24:00,
2013-06-25 03:39:00,81.1,75.0,29.90,East,93,9.0,16.0,82,0.00,,,0.00,weatherlink.com 1.10,2013-06-25 07:39:00,
2013-06-25 03:54:00,81.1,76.0,29.90,East,91,5.0,13.0,83,0.00,,,0.00,weatherlink.com 1.10,2013-06-25 07:54:00,
2013-06-25 04:09:00,81.0,75.0,29.89,East,88,9.0,12.0,83,0.00,,,0.00,weatherlink.com 1.10,2013-06-25 08:09:00,
2013-06-25 04:24:00,80.9,75.0,29.89,ENE,62,7.0,15.0,82,0.00,,,0.00,weatherlink.com 1.10,2013-06-25 08:24:00,
2013-06-25 04:39:00,81.0,75.0,29.89,East,82,5.0,14.0,83,0.00,,,0.00,weatherlink.com 1.10,2013-06-25 08:39:00,
2013-06-25 04:54:00,81.0,75.0,29.89,East,98,10.0,11.0,83,0.00,,,0.00,weatherlink.com 1.10,2013-06-25 08:54:00,
2013-06-25 05:09:00,80.9,75.0,29.89,East,89,5.0,12.0,83,0.00,,,0.00,weatherlink.com 1.10,2013-06-25 09:09:00,
2013-06-25 05:24:00,80.8,75.0,29.89,NE,40,9.0,12.0,83,0.00,,,0.00,weatherlink.com 1.10,2013-06-25 09:24:00,
2013-06-25 05:39:00,80.8,76.0,29.89,East,89,3.0,11.0,84,0.00,,,0.00,weatherlink.com 1.10,2013-06-25 09:39:00,
2013-06-25 05:54:00,80.9,76.0,29.89,ESE,109,10.0,14.0,84,0.00,,,0.00,weatherlink.com 1.10,2013-06-25 09:54:00,
2013-06-25 06:09:00,81.0,76.0,29.89,ESE,107,4.0,14.0,84,0.00,,,0.00,weatherlink.com 1.10,2013-06-25 10:09:00,
2013-06-25 06:24:00,80.9,76.0,29.89,NE,52,2.0,12.0,85,0.00,,,0.00,weatherlink.com 1.10,2013-06-25 10:24:00,
2013-06-25 06:39:00,81.2,76.0,29.90,NE,49,7.0,15.0,84,0.00,,,0.00,weatherlink.com 1.10,2013-06-25 10:39:00,
2013-06-25 06:54:00,81.4,76.0,29.91,East,79,6.0,12.0,84,0.00,,,0.00,weatherlink.com 1.10,2013-06-25 10:54:00,
2013-06-25 07:09:00,82.0,76.0,29.91,ENE,64,3.0,14.0,83,0.00,,,0.00,weatherlink.com 1.10,2013-06-25 11:09:00,
2013-06-25 07:24:00,82.4,76.0,29.92,ESE,102,9.0,17.0,82,0.00,,,0.00,weatherlink.com 1.10,2013-06-25 11:24:00,
2013-06-25 07:40:00,82.8,76.0,29.93,ENE,76,7.0,15.0,81,0.00,,,0.00,weatherlink.com 1.10,2013-06-25 11:40:00,
2013-06-25 07:55:00,83.2,76.0,29.93,ESE,109,15.0,16.0,80,0.00,,,0.00,weatherlink.com 1.10,2013-06-25 11:55:00,
2013-06-25 08:10:00,83.8,77.0,29.94,ESE,105,7.0,16.0,80,0.00,,,0.00,weatherlink.com 1.10,2013-06-25 12:10:00,
2013-06-25 08:25:00,84.1,77.0,29.94,ESE,103,8.0,17.0,79,0.00,,,0.00,weatherlink.com 1.10,2013-06-25 12:25:00,
2013-06-25 08:40:00,84.4,77.0,29.95,ENE,59,8.0,18.0,78,0.00,,,0.00,weatherlink.com 1.10,2013-06-25 12:40:00,
2013-06-25 08:55:00,85.0,77.0,29.95,East,90,3.0,18.0,76,0.00,,,0.00,weatherlink.com 1.10,2013-06-25 12:55:00,
2013-06-25 09:10:00,85.6,77.0,29.95,East,99,8.0,16.0,75,0.00,,,0.00,weatherlink.com 1.10,2013-06-25 13:10:00,
2013-06-25 09:25:00,85.5,77.0,29.95,East,93,9.0,18.0,76,0.00,,,0.00,weatherlink.com 1.10,2013-06-25 13:25:00,
2013-06-25 09:40:00,86.1,77.0,29.95,East,97,8.0,17.0,75,0.00,,,0.00,weatherlink.com 1.10,2013-06-25 13:40:00,
2013-06-25 09:55:00,86.3,77.0,29.95,NE,39,9.0,19.0,74,0.00,,,0.00,weatherlink.com 1.10,2013-06-25 13:55:00,
2013-06-25 10:10:00,86.3,77.0,29.95,ESE,121,8.0,18.0,74,0.00,,,0.00,weatherlink.com 1.10,2013-06-25 14:10:00,
2013-06-25 10:25:00,86.5,77.0,29.95,ESE,104,13.0,19.0,74,0.00,,,0.00,weatherlink.com 1.10,2013-06-25 14:25:00,
2013-06-25 10:40:00,86.1,77.0,29.95,East,79,7.0,18.0,73,0.00,,,0.00,weatherlink.com 1.10,2013-06-25 14:40:00,
2013-06-25 10:55:00,86.3,76.0,29.95,ESE,103,11.0,17.0,72,0.00,,,0.00,weatherlink.com 1.10,2013-06-25 14:55:00,
2013-06-25 11:10:00,87.2,76.0,29.95,ENE,78,8.0,18.0,70,0.00,,,0.00,weatherlink.com 1.10,2013-06-25 15:10:00,
2013-06-25 11:25:00,87.7,77.0,29.95,ENE,62,9.0,19.0,70,0.00,,,0.00,weatherlink.com 1.10,2013-06-25 15:25:00,
2013-06-25 11:40:00,88.2,77.0,29.95,ENE,72,10.0,16.0,70,0.00,,,0.00,weatherlink.com 1.10,2013-06-25 15:40:00,
2013-06-25 11:55:00,87.3,77.0,29.94,ESE,121,9.0,18.0,72,0.00,,,0.00,weatherlink.com 1.10,2013-06-25 15:55:00,
2013-06-25 12:10:00,88.2,77.0,29.94,NE,51,9.0,15.0,70,0.00,,,0.00,weatherlink.com 1.10,2013-06-25 16:10:00,
2013-06-25 12:25:00,88.8,76.0,29.94,East,83,9.0,15.0,67,0.00,,,0.00,weatherlink.com 1.10,2013-06-25 16:25:00,
2013-06-25 12:40:00,87.7,77.0,29.93,SE,128,6.0,14.0,70,0.00,,,0.00,weatherlink.com 1.10,2013-06-25 16:40:00,
2013-06-25 12:55:00,87.7,77.0,29.93,ENE,61,8.0,15.0,71,0.00,,,0.00,weatherlink.com 1.10,2013-06-25 16:55:00,
2013-06-25 13:10:00,88.0,77.0,29.93,ESE,119,9.0,16.0,70,0.00,,,0.00,weatherlink.com 1.10,2013-06-25 17:10:00,
2013-06-25 13:25:00,87.8,77.0,29.92,East,101,7.0,16.0,70,0.00,,,0.00,weatherlink.com 1.10,2013-06-25 17:25:00,
2013-06-25 13:40:00,87.7,77.0,29.91,ENE,70,12.0,14.0,70,0.00,,,0.00,weatherlink.com 1.10,2013-06-25 17:40:00,
2013-06-25 13:55:00,88.2,77.0,29.91,ENE,63,13.0,17.0,69,0.00,,,0.00,weatherlink.com 1.10,2013-06-25 17:55:00,
2013-06-25 14:10:00,87.8,77.0,29.90,SE,126,5.0,16.0,70,0.00,,,0.00,weatherlink.com 1.10,2013-06-25 18:10:00,
2013-06-25 14:25:00,88.1,77.0,29.90,East,98,10.0,14.0,70,0.00,,,0.00,weatherlink.com 1.10,2013-06-25 18:25:00,
2013-06-25 14:40:00,87.1,76.0,29.90,East,80,16.0,18.0,70,0.00,,,0.00,weatherlink.com 1.10,2013-06-25 18:40:00,
2013-06-25 14:55:00,87.3,76.0,29.89,ENE,75,14.0,16.0,69,0.00,,,0.00,weatherlink.com 1.10,2013-06-25 18:55:00,
2013-06-25 15:10:00,87.2,76.0,29.89,East,83,15.0,16.0,70,0.00,,,0.00,weatherlink.com 1.10,2013-06-25 19:10:00,
2013-06-25 15:25:00,87.2,77.0,29.88,SSE,161,8.0,17.0,71,0.00,,,0.00,weatherlink.com 1.10,2013-06-25 19:25:00,
2013-06-25 15:40:00,86.5,76.0,29.88,ENE,62,4.0,17.0,70,0.00,,,0.00,weatherlink.com 1.10,2013-06-25 19:40:00,
2013-06-25 15:55:00,86.8,76.0,29.87,East,84,9.0,16.0,70,0.00,,,0.00,weatherlink.com 1.10,2013-06-25 19:55:00,
2013-06-25 16:10:00,85.8,76.0,29.86,SE,130,12.0,17.0,72,0.00,,,0.00,weatherlink.com 1.10,2013-06-25 20:10:00,
2013-06-25 16:25:00,86.3,77.0,29.86,ESE,119,10.0,17.0,73,0.00,,,0.00,weatherlink.com 1.10,2013-06-25 20:25:00,
2013-06-25 16:40:00,85.7,77.0,29.85,East,94,8.0,15.0,76,0.00,,,0.00,weatherlink.com 1.10,2013-06-25 20:40:00,
2013-06-25 16:55:00,85.6,77.0,29.85,East,90,17.0,17.0,76,0.00,,,0.00,weatherlink.com 1.10,2013-06-25 20:55:00,
2013-06-25 17:10:00,85.2,77.0,29.85,SE,125,6.0,15.0,76,0.00,,,0.00,weatherlink.com 1.10,2013-06-25 21:10:00,
2013-06-25 17:25:00,84.9,77.0,29.85,NE,49,5.0,14.0,76,0.00,,,0.00,weatherlink.com 1.10,2013-06-25 21:25:00,
2013-06-25 17:40:00,84.4,77.0,29.85,ESE,106,4.0,13.0,77,0.00,,,0.00,weatherlink.com 1.10,2013-06-25 21:40:00,
2013-06-25 17:55:00,84.6,77.0,29.86,ENE,69,5.0,13.0,77,0.00,,,0.00,weatherlink.com 1.10,2013-06-25 21:55:00,
2013-06-25 18:10:00,84.1,76.0,29.86,ENE,78,7.0,14.0,77,0.00,,,0.00,weatherlink.com 1.10,2013-06-25 22:10:00,
2013-06-25 18:25:00,83.4,76.0,29.87,ESE,116,7.0,14.0,78,0.00,,,0.00,weatherlink.com 1.10,2013-06-25 22:25:00,
2013-06-25 18:40:00,83.0,76.0,29.88,ENE,70,3.0,14.0,78,0.00,,,0.00,weatherlink.com 1.10,2013-06-25 22:40:00,
2013-06-25 18:55:00,82.8,76.0,29.88,NE,49,4.0,14.0,79,0.00,,,0.00,weatherlink.com 1.10,2013-06-25 22:55:00,
2013-06-25 19:10:00,82.6,76.0,29.89,East,80,6.0,11.0,79,0.00,,,0.00,weatherlink.com 1.10,2013-06-25 23:10:00,
2013-06-25 19:25:00,82.4,76.0,29.89,ESE,117,4.0,11.0,80,0.00,,,0.00,weatherlink.com 1.10,2013-06-25 23:25:00,
2013-06-25 19:40:00,82.2,76.0,29.90,ESE,109,5.0,11.0,81,0.00,,,0.00,weatherlink.com 1.10,2013-06-25 23:40:00,
2013-06-25 19:55:00,82.1,76.0,29.90,ENE,69,3.0,9.0,81,0.00,,,0.00,weatherlink.com 1.10,2013-06-25 23:55:00,
2013-06-25 20:10:00,82.1,76.0,29.91,NE,42,5.0,11.0,82,0.00,,,0.00,weatherlink.com 1.10,2013-06-26 00:10:00,
2013-06-25 20:25:00,82.1,77.0,29.91,NE,48,4.0,10.0,83,0.00,,,0.00,weatherlink.com 1.10,2013-06-26 00:25:00,
2013-06-25 20:40:00,81.9,76.0,29.91,NE,55,1.0,11.0,83,0.00,,,0.00,weatherlink.com 1.10,2013-06-26 00:40:00,
2013-06-25 20:56:00,82.0,77.0,29.92,ENE,67,7.0,9.0,84,0.00,,,0.00,weatherlink.com 1.10,2013-06-26 00:56:00,
2013-06-25 21:11:00,82.0,77.0,29.92,East,83,1.0,9.0,84,0.00,,,0.00,weatherlink.com 1.10,2013-06-26 01:11:00,
2013-06-25 21:26:00,81.9,77.0,29.93,East,82,2.0,11.0,84,0.00,,,0.00,weatherlink.com 1.10,2013-06-26 01:26:00,
2013-06-25 21:41:00,81.9,77.0,29.93,NE,55,1.0,10.0,84,0.00,,,0.00,weatherlink.com 1.10,2013-06-26 01:41:00,
2013-06-25 21:56:00,81.8,77.0,29.93,ENE,57,5.0,10.0,84,0.00,,,0.00,weatherlink.com 1.10,2013-06-26 01:56:00,
2013-06-25 22:11:00,81.8,77.0,29.93,ESE,106,3.0,7.0,84,0.00,,,0.00,weatherlink.com 1.10,2013-06-26 02:11:00,
2013-06-25 22:26:00,81.6,76.0,29.93,East,82,6.0,10.0,84,0.00,,,0.00,weatherlink.com 1.10,2013-06-26 02:26:00,
2013-06-25 22:41:00,81.5,76.0,29.94,ENE,78,2.0,8.0,82,0.00,,,0.00,weatherlink.com 1.10,2013-06-26 02:41:00,
2013-06-25 22:56:00,81.5,76.0,29.94,ENE,67,3.0,11.0,82,0.00,,,0.00,weatherlink.com 1.10,2013-06-26 02:56:00,
2013-06-25 23:11:00,81.5,76.0,29.95,East,85,2.0,9.0,83,0.00,,,0.00,weatherlink.com 1.10,2013-06-26 03:11:00,
2013-06-25 23:26:00,81.5,76.0,29.94,East,88,5.0,10.0,83,0.00,,,0.00,weatherlink.com 1.10,2013-06-26 03:26:00,
2013-06-25 23:41:00,81.5,76.0,29.94,NE,43,4.0,9.0,83,0.00,,,0.00,weatherlink.com 1.10,2013-06-26 03:41:00,
2013-06-25 23:56:00,81.6,76.0,29.94,NE,49,3.0,10.0,84,0.00,,,0.00,weatherlink.com 1.10,2013-06-26 03:56:00,